createdAt,value
2023-02-17T00:02:36.447Z,7.47
2023-02-17T00:07:39.538Z,7.76
2023-02-17T00:12:41.723Z,7.74
2023-02-17T00:17:43.816Z,7.84
2023-02-17T00:22:46.070Z,7.62
2023-02-17T00:27:48.176Z,7.55
2023-02-17T00:32:50.347Z,7.60
2023-02-17T00:37:52.484Z,7.58
2023-02-17T00:42:55.218Z,7.41
2023-02-17T00:47:57.368Z,6.73
2023-02-17T00:52:59.484Z,7.23
2023-02-17T00:58:01.878Z,7.03
2023-02-17T01:03:04.438Z,7.48
2023-02-17T01:08:06.686Z,7.48
2023-02-17T01:13:09.671Z,7.26
2023-02-17T01:18:12.278Z,7.41
2023-02-17T01:23:15.518Z,7.32
2023-02-17T01:28:21.568Z,7.25
2023-02-17T01:33:23.789Z,7.05
2023-02-17T01:38:25.913Z,7.44
2023-02-17T01:43:28.920Z,7.38
2023-02-17T01:48:41.105Z,7.09
2023-02-17T01:54:12.506Z,7.13
2023-02-17T01:59:22.555Z,7.11
2023-02-17T02:04:28.920Z,6.85
2023-02-17T02:09:39.108Z,7.12
2023-02-17T02:14:41.347Z,6.83
2023-02-17T02:20:01.964Z,6.83
2023-02-17T02:25:22.285Z,6.67
2023-02-17T02:30:27.176Z,6.67
2023-02-17T02:35:47.178Z,6.75
2023-02-17T02:41:07.581Z,6.54
2023-02-17T02:46:10.159Z,6.44
2023-02-17T02:51:15.173Z,6.46
2023-02-17T02:56:37.004Z,6.50
2023-02-17T03:01:45.789Z,6.59
2023-02-17T03:07:00.650Z,6.76
2023-02-17T03:12:03.365Z,6.64
2023-02-17T03:17:05.972Z,6.72
2023-02-17T03:22:15.968Z,6.55
2023-02-17T03:27:18.222Z,6.44
2023-02-17T03:32:20.827Z,6.42
2023-02-17T03:37:23.003Z,6.32
2023-02-17T03:42:26.100Z,6.40
2023-02-17T03:47:28.302Z,5.97
2023-02-17T03:52:30.563Z,6.08
2023-02-17T03:57:33.986Z,6.01
2023-02-17T04:02:36.657Z,6.35
2023-02-17T04:07:38.976Z,6.19
2023-02-17T04:12:41.444Z,6.18
2023-02-17T04:17:43.645Z,6.10
2023-02-17T04:22:46.641Z,5.57
2023-02-17T04:27:48.862Z,5.53
2023-02-17T04:32:51.011Z,5.65
2023-02-17T04:37:54.139Z,5.82
2023-02-17T04:42:56.250Z,5.82
2023-02-17T04:47:58.587Z,6.22
2023-02-17T04:53:00.886Z,6.08
2023-02-17T04:58:03.231Z,5.97
2023-02-17T05:03:05.439Z,5.88
2023-02-17T05:08:07.643Z,5.63
2023-02-17T05:13:10.000Z,5.99
2023-02-17T05:18:14.050Z,6.04
2023-02-17T05:23:16.190Z,5.75
2023-02-17T05:28:18.854Z,5.96
2023-02-17T05:33:21.036Z,6.15
2023-02-17T05:38:23.298Z,5.77
2023-02-17T05:43:25.676Z,5.81
2023-02-17T05:48:28.091Z,5.40
2023-02-17T05:53:30.570Z,5.47
2023-02-17T05:58:32.752Z,5.38
2023-02-17T06:03:35.098Z,5.63
2023-02-17T06:08:37.949Z,5.92
2023-02-17T06:13:40.319Z,5.63
2023-02-17T06:18:42.907Z,6.10
2023-02-17T06:23:45.494Z,6.09
2023-02-17T06:28:47.716Z,6.36
2023-02-17T06:33:49.923Z,6.72
2023-02-17T06:38:52.303Z,7.03
2023-02-17T06:43:54.546Z,7.00
2023-02-17T06:48:56.966Z,7.22
2023-02-17T06:53:59.134Z,7.15
2023-02-17T06:59:02.044Z,7.44
2023-02-17T07:04:04.333Z,7.51
2023-02-17T07:09:06.654Z,7.78
2023-02-17T07:14:08.816Z,8.06
2023-02-17T07:19:10.947Z,8.36
2023-02-17T07:24:13.616Z,8.52
2023-02-17T07:29:19.388Z,8.84
2023-02-17T07:34:21.825Z,8.90
2023-02-17T07:39:24.018Z,9.21
2023-02-17T07:44:26.190Z,9.29
2023-02-17T07:49:28.747Z,9.51
2023-02-17T07:54:30.953Z,9.54
2023-02-17T07:59:33.353Z,9.78
2023-02-17T08:04:35.688Z,9.48
2023-02-17T08:09:56.384Z,9.48
2023-02-17T08:14:58.522Z,9.96
2023-02-17T08:20:07.971Z,9.93
2023-02-17T08:25:10.838Z,10.32
2023-02-17T08:30:13.478Z,10.60
2023-02-17T08:35:16.101Z,10.50
2023-02-17T08:40:19.578Z,9.85
2023-02-17T08:45:21.943Z,11.00
2023-02-17T08:50:24.402Z,11.20
2023-02-17T08:55:26.728Z,11.32
2023-02-17T09:00:29.110Z,11.53
2023-02-17T09:05:32.736Z,11.56
2023-02-17T09:10:34.986Z,11.85
2023-02-17T09:15:37.744Z,12.02
2023-02-17T09:20:40.121Z,12.30
2023-02-17T09:25:42.638Z,12.21
2023-02-17T09:30:45.036Z,12.38
2023-02-17T09:35:47.381Z,12.47
2023-02-17T09:40:50.963Z,12.55
2023-02-17T09:46:08.314Z,12.41
2023-02-17T09:51:20.555Z,12.79
2023-02-17T09:56:41.456Z,12.32
2023-02-17T10:01:45.385Z,13.12
2023-02-17T10:06:57.986Z,13.31
2023-02-17T10:12:14.546Z,13.63
2023-02-17T10:17:23.977Z,13.17
2023-02-17T10:22:27.558Z,13.88
2023-02-17T10:27:43.052Z,14.09
2023-02-17T10:33:10.420Z,13.56
2023-02-17T10:38:21.706Z,14.16
2023-02-17T10:43:30.291Z,14.04
2023-02-17T10:48:48.467Z,13.92
2023-02-17T10:54:02.072Z,14.44
2023-02-17T10:59:28.769Z,14.48
2023-02-17T11:04:42.684Z,14.08
2023-02-17T11:09:54.446Z,14.81
2023-02-17T11:14:57.285Z,15.26
2023-02-17T11:20:27.197Z,15.19
2023-02-17T11:25:32.784Z,15.44
2023-02-17T11:30:36.882Z,15.56
2023-02-17T11:35:51.629Z,15.88
2023-02-17T11:40:55.063Z,16.00
2023-02-17T11:46:23.651Z,15.95
2023-02-17T11:52:04.004Z,16.06
2023-02-17T11:57:15.372Z,16.35
2023-02-17T12:02:21.616Z,16.60
2023-02-17T12:07:55.565Z,16.90
2023-02-17T12:13:15.952Z,17.05
2023-02-17T12:18:27.038Z,17.12
2023-02-17T12:23:49.397Z,17.12
2023-02-17T12:29:08.279Z,17.22
2023-02-17T12:34:13.276Z,17.62
2023-02-17T12:39:48.458Z,17.65
2023-02-17T12:44:56.179Z,17.64
2023-02-17T12:50:16.337Z,17.66
2023-02-17T12:55:26.103Z,18.01
2023-02-17T13:00:34.113Z,18.15
2023-02-17T13:05:39.696Z,18.29
2023-02-17T13:10:42.102Z,18.50
2023-02-17T13:15:46.937Z,18.59
2023-02-17T13:20:58.222Z,18.54
2023-02-17T13:26:20.994Z,18.79
2023-02-17T13:31:27.486Z,18.82
2023-02-17T13:36:29.650Z,19.13
2023-02-17T13:41:48.996Z,18.92
2023-02-17T13:46:52.334Z,19.16
2023-02-17T13:51:55.763Z,19.42
2023-02-17T13:56:58.300Z,19.28
2023-02-17T14:02:00.712Z,19.60
2023-02-17T14:07:05.517Z,19.42
2023-02-17T14:12:17.462Z,19.42
2023-02-17T14:17:33.259Z,19.81
2023-02-17T14:22:38.028Z,20.06
2023-02-17T14:27:50.476Z,20.16
2023-02-17T14:33:02.075Z,20.42
2023-02-17T14:38:22.404Z,20.41
2023-02-17T14:43:25.244Z,20.67
2023-02-17T14:48:28.157Z,20.51
2023-02-17T14:53:33.575Z,20.71
2023-02-17T14:58:36.247Z,20.79
2023-02-17T15:03:38.447Z,20.66
2023-02-17T15:08:41.095Z,20.71
2023-02-17T15:13:43.213Z,20.92
2023-02-17T15:18:48.221Z,21.11
2023-02-17T15:23:50.602Z,20.83
2023-02-17T15:28:53.085Z,20.59
2023-02-17T15:34:00.214Z,20.12
2023-02-17T15:39:02.502Z,19.58
2023-02-17T15:44:06.324Z,19.12
2023-02-17T15:49:11.763Z,18.66
2023-02-17T15:54:15.907Z,18.15
2023-02-17T15:59:27.204Z,17.99
2023-02-17T16:04:29.533Z,17.58
2023-02-17T16:09:31.830Z,17.60
2023-02-17T16:14:36.766Z,17.44
2023-02-17T16:19:38.945Z,17.40
2023-02-17T16:24:41.309Z,17.07
2023-02-17T16:29:43.739Z,17.12
2023-02-17T16:34:45.976Z,16.91
2023-02-17T16:39:48.110Z,16.72
2023-02-17T16:44:50.699Z,16.57
2023-02-17T16:49:53.186Z,16.35
2023-02-17T16:54:55.404Z,16.12
2023-02-17T16:59:57.685Z,15.92
2023-02-17T17:04:59.811Z,15.46
2023-02-17T17:10:15.836Z,15.23
2023-02-17T17:15:20.186Z,15.38
2023-02-17T17:20:30.322Z,15.12
2023-02-17T17:25:35.145Z,15.13
2023-02-17T17:30:37.682Z,14.96
2023-02-17T17:35:39.974Z,14.69
2023-02-17T17:40:50.873Z,14.49
2023-02-17T17:45:53.421Z,14.73
2023-02-17T17:50:55.607Z,14.43
2023-02-17T17:55:57.962Z,14.36
2023-02-17T18:01:02.048Z,14.04
2023-02-17T18:06:05.880Z,14.23
2023-02-17T18:11:09.074Z,14.15
2023-02-17T18:16:11.560Z,14.24
2023-02-17T18:21:14.073Z,13.72
2023-02-17T18:26:17.058Z,13.79
2023-02-17T18:31:20.008Z,13.73
2023-02-17T18:36:25.661Z,13.74
2023-02-17T18:41:33.214Z,13.83
2023-02-17T18:46:36.385Z,13.77
2023-02-17T18:51:38.686Z,13.64
2023-02-17T18:56:40.897Z,13.62
2023-02-17T19:01:43.634Z,13.52
2023-02-17T19:06:45.959Z,13.33
2023-02-17T19:11:48.200Z,13.15
2023-02-17T19:16:50.356Z,12.74
2023-02-17T19:21:53.483Z,12.92
2023-02-17T19:26:55.827Z,12.83
2023-02-17T19:32:03.021Z,12.90
2023-02-17T19:37:05.812Z,12.62
2023-02-17T19:42:09.579Z,12.41
2023-02-17T19:47:11.851Z,12.56
2023-02-17T19:52:14.053Z,11.88
2023-02-17T19:57:19.520Z,11.94
2023-02-17T20:02:21.785Z,12.10
2023-02-17T20:07:23.914Z,11.65
2023-02-17T20:12:26.107Z,11.41
2023-02-17T20:17:28.272Z,11.05
2023-02-17T20:22:30.475Z,11.04
2023-02-17T20:27:32.853Z,11.30
2023-02-17T20:32:35.120Z,11.56
2023-02-17T20:37:37.330Z,11.37
2023-02-17T20:42:39.463Z,10.91
2023-02-17T20:47:41.656Z,10.42
2023-02-17T20:52:46.336Z,10.76
2023-02-17T20:57:48.645Z,10.73
2023-02-17T21:02:52.745Z,10.79
2023-02-17T21:07:56.878Z,10.90
2023-02-17T21:12:59.540Z,10.55
2023-02-17T21:18:02.083Z,11.42
2023-02-17T21:28:21.041Z,10.46
2023-02-17T21:33:23.594Z,10.50
2023-02-17T21:38:25.810Z,10.67
2023-02-17T21:43:46.700Z,10.65
2023-02-17T21:48:53.478Z,10.62
2023-02-17T21:53:56.080Z,10.85
2023-02-17T21:58:58.298Z,10.76
2023-02-17T22:04:01.562Z,10.36
2023-02-17T22:09:07.302Z,9.31
2023-02-17T22:14:16.071Z,9.60
2023-02-17T22:19:21.056Z,9.67
2023-02-17T22:24:27.418Z,10.00
2023-02-17T22:29:29.678Z,10.28
2023-02-17T22:34:32.042Z,10.41
2023-02-17T22:39:34.324Z,9.95
2023-02-17T22:44:36.970Z,10.57
2023-02-17T22:49:39.191Z,10.47
2023-02-17T22:54:41.441Z,10.63
2023-02-17T22:59:43.666Z,10.50
2023-02-17T23:04:46.039Z,10.41
2023-02-17T23:09:48.315Z,10.54
2023-02-17T23:14:50.529Z,10.54
2023-02-17T23:19:52.771Z,10.05
2023-02-17T23:24:54.945Z,10.12
2023-02-17T23:29:57.749Z,10.00
2023-02-17T23:35:00.036Z,9.48
2023-02-17T23:40:02.586Z,9.73
2023-02-17T23:45:05.290Z,9.80
2023-02-17T23:50:08.371Z,8.68
2023-02-17T23:55:10.790Z,9.50
